Time;durP1;ratioP1;P1;durP2;ratioP2;P2;SDS_P1;SDS_P2;PMS_P1;PMS_P2;Temp;Humidity;BMP_temperature;BMP_pressure;BME280_temperature;BME280_humidity;BME280_pressure;Samples;Min_cycle;Max_cycle;Signal;HPM_P1;HPM_P2
2022/06/27 00:02:18;;;;;;;14.02;9.07;;;;;;;17.95;76.30;101410.00;5074968;28;20085;-56
2022/06/27 00:04:43;;;;;;;11.35;8.30;;;;;;;18.02;76.85;101402.25;5093347;28;20475;-57
2022/06/27 00:07:11;;;;;;;11.70;8.63;;;;;;;17.98;76.69;101408.91;5092096;28;20028;-56
2022/06/27 00:09:36;;;;;;;14.05;8.70;;;;;;;17.96;76.29;101410.88;5093049;28;20024;-57
2022/06/27 00:12:06;;;;;;;10.40;8.38;;;;;;;17.95;76.55;101407.31;5074606;28;20032;-56
2022/06/27 00:14:31;;;;;;;10.38;8.13;;;;;;;17.97;76.41;101413.44;5075348;28;20028;-56
2022/06/27 00:16:57;;;;;;;11.95;8.40;;;;;;;18.02;76.93;101413.03;5073923;28;20076;-57
2022/06/27 00:19:24;;;;;;;10.68;8.57;;;;;;;18.04;77.00;101413.75;5074862;28;20027;-56
2022/06/27 00:21:50;;;;;;;11.07;8.85;;;;;;;18.05;76.77;101416.31;5073777;28;20024;-57
2022/06/27 00:24:15;;;;;;;10.10;7.53;;;;;;;18.00;77.10;101421.25;5092575;28;20043;-56
2022/06/27 00:26:41;;;;;;;11.45;8.18;;;;;;;18.05;77.12;101421.69;5092317;28;20032;-56
2022/06/27 00:29:06;;;;;;;13.50;8.65;;;;;;;18.03;77.32;101433.56;5092479;28;20055;-56
2022/06/27 00:31:32;;;;;;;12.50;8.07;;;;;;;18.07;77.25;101426.94;5073700;28;20039;-56
2022/06/27 00:33:57;;;;;;;11.73;7.80;;;;;;;17.99;77.86;101430.28;5092374;28;20028;-58
2022/06/27 00:36:23;;;;;;;11.15;7.88;;;;;;;17.90;78.12;101437.31;5091846;28;20046;-56
2022/06/27 00:38:53;;;;;;;10.75;7.97;;;;;;;17.90;77.99;101431.06;5091807;28;20463;-56
2022/06/27 00:41:19;;;;;;;10.15;8.15;;;;;;;17.98;77.56;101431.28;5092488;28;20032;-56
2022/06/27 00:43:45;;;;;;;10.23;8.95;;;;;;;17.96;77.41;101440.47;5092324;28;20398;-56
2022/06/27 00:46:12;;;;;;;11.15;8.63;;;;;;;17.89;77.63;101435.59;5054885;28;20548;-56
2022/06/27 00:48:38;;;;;;;13.02;7.50;;;;;;;17.95;78.09;101436.94;5091790;28;20032;-56
2022/06/27 00:51:05;;;;;;;12.88;9.45;;;;;;;17.85;78.05;101435.97;5091506;28;20028;-56
2022/06/27 00:53:32;;;;;;;12.23;8.43;;;;;;;17.91;77.54;101448.91;5092125;28;20111;-56
2022/06/27 00:55:58;;;;;;;12.63;9.10;;;;;;;17.89;77.93;101453.59;5091982;28;20028;-56
2022/06/27 00:58:23;;;;;;;12.55;9.70;;;;;;;17.88;77.73;101452.75;5091941;28;20023;-56
2022/06/27 01:00:49;;;;;;;12.18;9.38;;;;;;;17.93;77.60;101447.81;5091472;28;20479;-56
2022/06/27 01:03:14;;;;;;;10.73;8.30;;;;;;;17.96;77.19;101443.16;5073812;28;20077;-56
2022/06/27 01:05:51;;;;;;;14.35;9.00;;;;;;;17.98;77.34;101442.06;5073051;28;20077;-56
2022/06/27 01:08:21;;;;;;;12.95;9.02;;;;;;;17.93;76.90;101445.13;5075073;28;20391;-56
2022/06/27 01:10:47;;;;;;;11.55;8.68;;;;;;;17.93;77.93;101450.50;5074033;28;20433;-56
2022/06/27 01:13:13;;;;;;;10.05;9.05;;;;;;;17.88;78.15;101450.06;5091411;28;20073;-56
2022/06/27 01:15:40;;;;;;;11.80;8.82;;;;;;;17.93;77.99;101458.56;5070984;28;21112;-56
2022/06/27 01:18:08;;;;;;;12.93;9.20;;;;;;;17.90;77.80;101464.22;5091567;28;20436;-56
2022/06/27 01:20:34;;;;;;;12.02;9.20;;;;;;;17.89;76.99;101454.44;5073166;28;20056;-56
2022/06/27 01:23:00;;;;;;;10.95;9.45;;;;;;;17.85;78.09;101460.19;5091066;28;20034;-56
2022/06/27 01:25:26;;;;;;;10.20;8.13;;;;;;;17.83;78.55;101460.34;5091723;28;20028;-56
2022/06/27 01:27:54;;;;;;;12.10;9.40;;;;;;;17.83;76.73;101456.81;5073196;28;20107;-56
2022/06/27 01:30:21;;;;;;;13.43;9.57;;;;;;;17.84;78.03;101450.44;5090806;28;20485;-56
2022/06/27 01:32:50;;;;;;;13.57;9.48;;;;;;;17.87;75.70;101451.03;5091280;28;20048;-56
2022/06/27 01:35:15;;;;;;;13.43;9.67;;;;;;;17.93;75.85;101444.28;5073822;28;20036;-56
2022/06/27 01:37:41;;;;;;;12.77;10.23;;;;;;;17.86;77.33;101438.56;5090627;28;20149;-56
2022/06/27 01:40:07;;;;;;;13.52;9.35;;;;;;;17.88;77.68;101422.25;5072897;28;20479;-56
2022/06/27 01:42:34;;;;;;;11.77;9.70;;;;;;;17.82;76.33;101406.63;5090279;28;20154;-56
2022/06/27 01:45:00;;;;;;;12.90;9.80;;;;;;;17.89;77.17;101414.06;5090969;28;20126;-56
2022/06/27 01:47:27;;;;;;;15.23;9.75;;;;;;;17.91;77.23;101404.03;5073296;28;20074;-56
2022/06/27 01:49:53;;;;;;;11.45;9.40;;;;;;;17.83;77.56;101413.75;5073293;28;20035;-56
2022/06/27 01:52:19;;;;;;;13.57;9.85;;;;;;;17.80;77.42;101414.84;5090798;28;20024;-56
2022/06/27 01:54:45;;;;;;;12.65;9.63;;;;;;;17.75;78.07;101408.97;5091487;28;20150;-57
2022/06/27 01:57:11;;;;;;;10.95;9.65;;;;;;;17.77;77.48;101415.09;5091024;28;20508;-57
2022/06/27 01:59:37;;;;;;;12.50;9.80;;;;;;;17.70;77.91;101403.13;5090287;28;20031;-56
2022/06/27 02:02:04;;;;;;;12.20;9.63;;;;;;;17.63;78.14;101394.72;5091237;28;20020;-56
2022/06/27 02:04:31;;;;;;;14.45;9.32;;;;;;;17.75;77.95;101406.28;5076235;28;20027;-56
2022/06/27 02:06:58;;;;;;;12.60;9.60;;;;;;;17.69;77.90;101401.44;5094787;28;20055;-56
2022/06/27 02:09:24;;;;;;;15.23;10.15;;;;;;;17.70;77.61;101403.13;5095034;28;20023;-56
2022/06/27 02:11:51;;;;;;;13.70;9.68;;;;;;;17.75;77.86;101400.91;5095129;28;20035;-56
2022/06/27 02:14:18;;;;;;;14.00;10.40;;;;;;;17.69;78.01;101383.44;5076812;28;20064;-56
2022/06/27 02:16:44;;;;;;;11.55;9.18;;;;;;;17.73;77.95;101389.41;5076878;28;20027;-56
2022/06/27 02:19:17;;;;;;;12.88;9.43;;;;;;;17.80;78.13;101389.78;5095042;28;20031;-56
2022/06/27 02:21:42;;;;;;;10.23;8.77;;;;;;;17.86;78.05;101386.56;5094270;28;20050;-56
2022/06/27 02:24:08;;;;;;;13.52;9.73;;;;;;;17.87;77.72;101380.19;5094929;28;20502;-56
2022/06/27 02:26:34;;;;;;;11.48;9.07;;;;;;;17.82;77.92;101374.34;5095229;28;20032;-56
2022/06/27 02:29:00;;;;;;;13.20;9.38;;;;;;;17.78;78.01;101367.53;5076323;28;20052;-56
2022/06/27 02:31:29;;;;;;;12.27;9.07;;;;;;;17.79;78.81;101382.69;5076459;28;20395;-57
2022/06/27 02:33:55;;;;;;;12.13;8.95;;;;;;;17.75;78.44;101378.53;5094961;28;20035;-56
2022/06/27 02:36:35;;;;;;;12.68;8.40;;;;;;;17.82;78.20;101387.81;5076407;28;20078;-57
2022/06/27 02:39:02;;;;;;;15.13;9.70;;;;;;;17.76;78.40;101386.44;5094098;28;20024;-56
2022/06/27 02:41:32;;;;;;;12.77;8.77;;;;;;;17.74;79.14;101379.53;5093758;28;20028;-56
2022/06/27 02:44:13;;;;;;;10.88;8.77;;;;;;;17.75;78.84;101379.38;5094431;28;20118;-56
2022/06/27 02:46:39;;;;;;;14.35;9.23;;;;;;;17.67;79.02;101371.94;5094624;28;20030;-56
2022/06/27 02:49:08;;;;;;;9.70;8.70;;;;;;;17.64;79.26;101366.81;5094554;28;20395;-56
2022/06/27 02:51:42;;;;;;;10.60;9.23;;;;;;;17.69;79.19;101358.38;5093496;28;20031;-56
2022/06/27 02:54:10;;;;;;;13.20;9.50;;;;;;;17.68;79.03;101359.38;5094523;28;20035;-56
2022/06/27 02:56:42;;;;;;;11.25;9.68;;;;;;;17.64;79.52;101348.00;5094156;28;20035;-56
2022/06/27 02:59:21;;;;;;;12.05;8.85;;;;;;;17.67;79.10;101344.19;5094390;28;20028;-56
2022/06/27 03:01:51;;;;;;;11.27;9.40;;;;;;;17.49;79.91;101335.84;5093886;28;20490;-56
2022/06/27 03:04:16;;;;;;;16.63;10.27;;;;;;;17.55;79.83;101335.31;5093954;28;20055;-56
2022/06/27 03:06:44;;;;;;;11.23;9.48;;;;;;;17.53;79.72;101336.44;5093551;28;20059;-56
2022/06/27 03:09:10;;;;;;;13.73;9.15;;;;;;;17.55;79.54;101334.47;5094146;28;20028;-56
2022/06/27 03:11:35;;;;;;;10.77;9.40;;;;;;;17.47;79.88;101325.25;5093875;28;20028;-56
2022/06/27 03:14:03;;;;;;;11.00;9.60;;;;;;;17.44;79.81;101335.38;5058453;28;20085;-56
2022/06/27 03:16:28;;;;;;;12.30;9.55;;;;;;;17.38;80.11;101331.41;5092992;28;20415;-56
2022/06/27 03:18:54;;;;;;;13.20;9.90;;;;;;;17.38;80.29;101333.22;5075830;28;20031;-56
2022/06/27 03:21:20;;;;;;;12.65;9.65;;;;;;;17.25;80.54;101342.31;5093169;28;20605;-56
2022/06/27 03:23:49;;;;;;;10.95;9.70;;;;;;;17.24;80.40;101343.28;5093583;28;20023;-56
2022/06/27 03:26:17;;;;;;;10.52;9.38;;;;;;;17.22;80.35;101339.03;5093382;28;20035;-56
2022/06/27 03:28:45;;;;;;;13.95;10.13;;;;;;;17.15;80.86;101341.38;5075525;28;20125;-56
2022/06/27 03:31:11;;;;;;;14.15;10.45;;;;;;;17.18;80.48;101342.97;5093390;28;20376;-56
2022/06/27 03:33:37;;;;;;;11.80;9.60;;;;;;;17.11;80.40;101345.28;5071770;28;20051;-56
2022/06/27 03:36:04;;;;;;;11.50;10.30;;;;;;;17.03;80.99;101334.34;5072866;28;20471;-56
2022/06/27 03:38:30;;;;;;;13.68;10.52;;;;;;;17.00;80.66;101339.94;5073182;28;20028;-56
2022/06/27 03:40:57;;;;;;;11.98;9.98;;;;;;;17.00;80.69;101340.81;5073000;28;20043;-56
2022/06/27 03:43:22;;;;;;;14.20;11.13;;;;;;;16.88;80.99;101330.19;5072151;28;20548;-57
2022/06/27 03:45:48;;;;;;;15.25;10.93;;;;;;;16.89;81.08;101338.16;5072719;28;20029;-56
2022/06/27 03:50:00;;;;;;;12.48;10.35;;;;;;;16.92;80.63;101334.34;5073236;28;20174;-56
2022/06/27 03:50:59;;;;;;;15.75;10.75;;;;;;;16.92;80.89;101343.28;5072545;28;20080;-56
2022/06/27 03:53:25;;;;;;;12.52;11.23;;;;;;;16.85;80.71;101333.97;5071835;28;20056;-56
2022/06/27 03:55:53;;;;;;;13.30;11.02;;;;;;;16.89;80.90;101343.53;5071545;28;20093;-56
2022/06/27 03:58:18;;;;;;;15.50;10.73;;;;;;;16.86;81.28;101349.16;5072967;28;20041;-56
2022/06/27 04:00:46;;;;;;;14.20;11.68;;;;;;;16.87;80.86;101358.91;5072401;28;20043;-56
2022/06/27 04:03:12;;;;;;;16.30;11.25;;;;;;;16.83;80.87;101373.59;5072975;28;20036;-56
2022/06/27 04:05:38;;;;;;;11.93;10.77;;;;;;;16.79;81.54;101372.09;5071118;28;20071;-56
2022/06/27 04:08:04;;;;;;;12.48;10.50;;;;;;;16.87;81.38;101356.22;5072641;28;20038;-56
2022/06/27 04:10:29;;;;;;;11.80;10.15;;;;;;;16.86;81.64;101356.34;5070604;28;20040;-57
2022/06/27 04:12:55;;;;;;;11.80;10.43;;;;;;;16.84;81.91;101356.47;5071298;28;20059;-56
2022/06/27 04:15:20;;;;;;;11.35;10.20;;;;;;;16.95;81.98;101359.13;5072504;28;20028;-56
2022/06/27 04:17:46;;;;;;;10.68;9.35;;;;;;;16.96;82.11;101358.16;5072097;28;20028;-56
2022/06/27 04:20:12;;;;;;;13.70;10.18;;;;;;;17.00;82.60;101338.13;5072473;28;20025;-56
2022/06/27 04:22:38;;;;;;;10.07;9.02;;;;;;;17.09;83.01;101332.94;5071883;28;20028;-56
2022/06/27 04:25:04;;;;;;;11.32;10.23;;;;;;;17.14;83.30;101331.59;5072122;28;20098;-56
2022/06/27 04:27:30;;;;;;;12.05;10.05;;;;;;;17.18;83.32;101322.31;5071042;28;20467;-56
2022/06/27 04:29:55;;;;;;;11.98;10.27;;;;;;;17.18;83.33;101306.19;5071827;28;20394;-57
2022/06/27 04:32:22;;;;;;;11.57;10.35;;;;;;;17.21;83.67;101311.28;5080527;28;20138;-56
2022/06/27 04:34:49;;;;;;;14.50;10.98;;;;;;;17.22;83.98;101302.25;5092495;28;20107;-56
2022/06/27 04:37:15;;;;;;;12.90;10.90;;;;;;;17.23;84.33;101286.94;5091438;28;20456;-56
2022/06/27 04:39:42;;;;;;;15.45;12.15;;;;;;;17.31;83.48;101279.09;5074276;28;20032;-56
2022/06/27 04:42:09;;;;;;;15.73;13.70;;;;;;;17.32;83.24;101286.19;5091830;28;20020;-56
2022/06/27 04:44:36;;;;;;;15.50;13.85;;;;;;;17.27;83.97;101292.94;5092555;28;20020;-56
2022/06/27 04:47:07;;;;;;;19.23;13.80;;;;;;;17.35;83.44;101293.97;5092085;28;20432;-56
2022/06/27 04:49:33;;;;;;;17.25;13.43;;;;;;;17.34;83.58;101286.91;5089972;28;20051;-56
2022/06/27 04:51:59;;;;;;;14.50;12.98;;;;;;;17.40;84.15;101297.13;5091526;28;20020;-56
2022/06/27 04:54:26;;;;;;;15.35;13.75;;;;;;;17.38;84.00;101300.94;5055859;28;20029;-56
2022/06/27 04:56:52;;;;;;;17.13;15.38;;;;;;;17.40;83.41;101305.22;5091753;28;20019;-56
2022/06/27 04:59:21;;;;;;;18.73;14.88;;;;;;;17.44;83.61;101308.47;5091661;28;20059;-56
2022/06/27 05:01:50;;;;;;;17.00;14.48;;;;;;;17.48;82.87;101309.94;5091928;28;20407;-56
2022/06/27 05:04:16;;;;;;;21.40;16.48;;;;;;;17.47;82.33;101297.47;5092263;28;20027;-56
2022/06/27 05:06:42;;;;;;;16.42;14.77;;;;;;;17.51;82.73;101295.38;5091411;28;20387;-56
2022/06/27 05:09:08;;;;;;;16.95;15.13;;;;;;;17.44;83.17;101290.53;5073105;28;20032;-56
2022/06/27 05:11:34;;;;;;;19.15;15.32;;;;;;;17.48;83.14;101280.38;5091204;28;20115;-56
2022/06/27 05:13:59;;;;;;;21.63;16.15;;;;;;;17.44;83.95;101274.41;5073418;28;20032;-56
2022/06/27 05:16:25;;;;;;;20.55;15.93;;;;;;;17.40;83.69;101275.63;5038318;28;20028;-56
2022/06/27 05:18:51;;;;;;;17.58;15.77;;;;;;;17.35;83.95;101288.59;5073250;28;20039;-56
2022/06/27 05:21:17;;;;;;;18.00;16.10;;;;;;;17.36;84.16;101300.25;5090456;28;20035;-56
2022/06/27 05:23:44;;;;;;;20.80;16.20;;;;;;;17.43;83.62;101306.78;5090990;28;20020;-56
2022/06/27 05:26:09;;;;;;;19.45;16.42;;;;;;;17.39;83.86;101303.50;5091232;28;20032;-56
2022/06/27 05:28:35;;;;;;;19.73;16.25;;;;;;;17.35;84.38;101302.03;5091429;28;20372;-56
2022/06/27 05:31:01;;;;;;;19.67;16.27;;;;;;;17.44;83.50;101297.72;5090789;28;20027;-56
2022/06/27 05:33:27;;;;;;;22.25;16.55;;;;;;;17.30;83.85;101306.13;5073091;28;20048;-56
2022/06/27 05:35:53;;;;;;;20.67;16.95;;;;;;;17.30;84.38;101344.63;5072779;28;20390;-56
2022/06/27 05:38:21;;;;;;;18.95;16.58;;;;;;;17.35;84.40;101365.72;5072126;28;20472;-56
2022/06/27 05:40:47;;;;;;;18.63;16.67;;;;;;;17.47;83.76;101378.16;5073318;28;20038;-56
2022/06/27 05:43:14;;;;;;;24.52;17.92;;;;;;;17.47;83.15;101397.84;5091016;28;20035;-56
2022/06/27 05:45:42;;;;;;;19.25;17.30;;;;;;;17.52;82.57;101405.53;5091017;28;20470;-56
2022/06/27 05:48:08;;;;;;;19.95;17.00;;;;;;;17.51;83.92;101400.28;5091227;28;20038;-56
2022/06/27 05:50:34;;;;;;;20.55;17.55;;;;;;;17.51;83.75;101411.03;5090912;28;20052;-56
2022/06/27 05:53:01;;;;;;;24.42;18.65;;;;;;;17.46;84.10;101428.41;5072059;28;20054;-56
2022/06/27 05:55:28;;;;;;;22.73;17.45;;;;;;;17.47;84.34;101434.63;5091022;28;20294;-56
2022/06/27 05:57:57;;;;;;;21.83;18.48;;;;;;;17.46;84.68;101423.03;5073116;28;20467;-56
2022/06/27 06:00:23;;;;;;;22.63;17.70;;;;;;;17.51;83.75;101421.81;5073169;28;20020;-58
2022/06/27 06:02:49;;;;;;;20.25;17.38;;;;;;;17.50;84.19;101423.66;5091001;28;20035;-56
2022/06/27 06:05:18;;;;;;;20.42;18.30;;;;;;;17.54;83.62;101406.25;5072634;28;20028;-56
2022/06/27 06:07:45;;;;;;;23.52;17.88;;;;;;;17.60;83.81;101388.75;5090348;28;20386;-56
2022/06/27 06:10:11;;;;;;;20.45;17.77;;;;;;;17.61;83.82;101391.28;5073117;28;20048;-56
2022/06/27 06:12:37;;;;;;;23.80;18.27;;;;;;;17.62;83.28;101384.94;5090820;28;20031;-56
2022/06/27 06:15:04;;;;;;;21.35;18.05;;;;;;;17.63;83.91;101404.63;5072341;28;20469;-56
2022/06/27 06:17:33;;;;;;;21.80;18.63;;;;;;;17.68;83.71;101408.66;5072641;28;20027;-56
2022/06/27 06:19:59;;;;;;;24.03;18.90;;;;;;;17.70;84.19;101403.13;5090409;28;20024;-57
2022/06/27 06:22:28;;;;;;;21.88;18.33;;;;;;;17.70;84.10;101416.56;5090432;28;20266;-56
2022/06/27 06:24:56;;;;;;;21.77;18.30;;;;;;;17.63;84.39;101428.84;5090782;28;20020;-57
2022/06/27 06:27:22;;;;;;;21.95;19.30;;;;;;;17.67;84.27;101438.34;5072145;28;20079;-56
2022/06/27 06:29:48;;;;;;;22.92;19.23;;;;;;;17.67;84.31;101438.34;5090838;28;20035;-56
2022/06/27 06:32:14;;;;;;;22.42;19.48;;;;;;;17.60;84.60;101427.25;5090224;28;20564;-56
2022/06/27 06:34:42;;;;;;;22.40;19.02;;;;;;;17.64;84.99;101435.91;5090463;28;20530;-56
2022/06/27 06:37:09;;;;;;;22.10;19.33;;;;;;;17.62;82.53;101428.00;5089841;28;20020;-56
2022/06/27 06:39:35;;;;;;;26.77;20.10;;;;;;;17.58;82.93;101420.28;5072657;28;20020;-56
2022/06/27 06:42:01;;;;;;;23.10;19.48;;;;;;;17.63;82.56;101407.31;5090480;28;20077;-56
2022/06/27 06:44:26;;;;;;;24.15;20.33;;;;;;;17.71;82.38;101380.63;5072969;28;20441;-56
2022/06/27 06:46:54;;;;;;;21.35;19.20;;;;;;;17.78;81.30;101367.53;5090293;28;20023;-56
2022/06/27 06:49:20;;;;;;;22.40;19.05;;;;;;;17.80;81.37;101363.72;5091217;28;20107;-56
2022/06/27 06:51:46;;;;;;;24.60;18.08;;;;;;;17.81;80.53;101365.44;5075652;28;20027;-56
2022/06/27 06:54:17;;;;;;;20.63;18.20;;;;;;;17.83;81.90;101359.94;5094073;28;20031;-57
2022/06/27 06:56:45;;;;;;;25.20;18.95;;;;;;;17.78;80.98;101338.78;5094048;28;20039;-56
2022/06/27 06:59:11;;;;;;;21.58;18.92;;;;;;;17.94;82.04;101351.75;5074249;28;20027;-56
2022/06/27 07:01:36;;;;;;;24.98;18.30;;;;;;;17.98;81.01;101366.69;5075956;28;20032;-56
2022/06/27 07:04:03;;;;;;;20.38;18.40;;;;;;;18.02;81.28;101376.19;5058623;28;20062;-57
2022/06/27 07:06:30;;;;;;;26.10;19.23;;;;;;;18.08;81.29;101378.34;5093750;28;20088;-56
2022/06/27 07:08:59;;;;;;;23.13;19.25;;;;;;;18.13;79.27;101364.50;5075892;28;20019;-56
2022/06/27 07:11:27;;;;;;;;;;;;;;;18.28;79.90;101352.38;5094608;28;20471;-57
2022/06/27 07:13:53;;;;;;;23.20;18.50;;;;;;;18.20;81.04;101346.81;5094148;28;19960;-56
2022/06/27 07:16:20;;;;;;;21.35;18.05;;;;;;;18.17;79.92;101352.47;5093586;28;20053;-56
2022/06/27 07:18:46;;;;;;;19.27;17.38;;;;;;;18.22;79.79;101382.53;5093203;28;20032;-56
2022/06/27 07:21:17;;;;;;;20.20;17.95;;;;;;;18.24;80.12;101380.59;5092753;28;20114;-57
2022/06/27 07:23:47;;;;;;;19.40;17.17;;;;;;;18.26;79.71;101383.97;5093869;28;20394;-56
2022/06/27 07:26:13;;;;;;;20.33;17.52;;;;;;;18.36;79.34;101406.44;5093987;28;20111;-56
2022/06/27 07:28:40;;;;;;;21.67;18.15;;;;;;;18.45;78.96;101410.16;5093849;28;20035;-56
2022/06/27 07:31:08;;;;;;;19.42;15.25;;;;;;;18.61;78.76;101406.97;5074898;28;20028;-56
2022/06/27 07:33:36;;;;;;;20.73;16.55;;;;;;;18.64;78.53;101397.78;5093292;28;20491;-56
2022/06/27 07:36:03;;;;;;;17.33;15.50;;;;;;;18.77;78.08;101401.97;5092883;28;20122;-57
2022/06/27 07:38:32;;;;;;;17.25;15.45;;;;;;;18.84;77.20;101404.97;5075447;28;20028;-56
2022/06/27 07:40:58;;;;;;;19.50;15.30;;;;;;;18.93;77.24;101406.84;5093168;28;20028;-56
2022/06/27 07:43:26;;;;;;;16.65;13.55;;;;;;;19.03;76.98;101415.81;5093207;28;20064;-56
2022/06/27 07:45:51;;;;;;;19.27;13.57;;;;;;;19.15;77.00;101407.59;5075022;28;20047;-57
2022/06/27 07:48:20;;;;;;;14.48;12.07;;;;;;;19.15;75.91;101408.47;5074959;28;20040;-57
2022/06/27 07:50:45;;;;;;;14.30;11.35;;;;;;;19.04;73.07;101420.22;5092762;28;20024;-56
2022/06/27 07:53:17;;;;;;;15.23;10.07;;;;;;;19.05;73.12;101431.84;5074490;28;20039;-56
2022/06/27 07:55:52;;;;;;;12.25;10.13;;;;;;;18.95;75.07;101425.59;5074857;28;20031;-57
2022/06/27 07:58:21;;;;;;;11.18;9.75;;;;;;;18.96;73.98;101428.13;5074766;28;20031;-56
2022/06/27 08:00:48;;;;;;;12.90;10.10;;;;;;;18.91;76.37;101438.47;5092444;28;20493;-57
2022/06/27 08:06:00;;;;;;;13.75;9.65;;;;;;;19.00;73.85;101440.38;5092619;28;20132;-57
2022/06/27 08:08:27;;;;;;;12.60;9.52;;;;;;;19.03;74.58;101437.41;5075299;28;20483;-56
2022/06/27 08:10:53;;;;;;;13.18;8.55;;;;;;;19.16;73.18;101444.38;5058477;28;20036;-56
2022/06/27 08:13:19;;;;;;;11.27;8.30;;;;;;;19.17;72.87;101451.47;5093144;28;20028;-57
2022/06/27 08:15:48;;;;;;;10.68;8.20;;;;;;;19.23;71.86;101449.06;5074054;28;20024;-57
2022/06/27 08:18:15;;;;;;;10.35;8.50;;;;;;;19.24;72.48;101440.00;5074788;28;20173;-56
2022/06/27 08:20:40;;;;;;;9.98;8.50;;;;;;;19.23;71.17;101438.28;5092430;28;20032;-56
2022/06/27 08:23:07;;;;;;;10.70;8.98;;;;;;;19.23;71.70;101438.28;5074073;28;20573;-56
2022/06/27 08:25:33;;;;;;;11.43;9.05;;;;;;;19.14;71.62;101438.25;5073974;28;20031;-56
2022/06/27 08:27:59;;;;;;;11.38;8.77;;;;;;;19.16;71.80;101457.84;5092549;28;20027;-57
2022/06/27 08:30:25;;;;;;;13.43;9.65;;;;;;;19.10;72.21;101461.09;5074374;28;20032;-57
2022/06/27 08:32:55;;;;;;;12.05;10.27;;;;;;;19.02;72.21;101470.72;5092257;28;20040;-56
2022/06/27 08:35:24;;;;;;;11.18;9.65;;;;;;;19.00;75.55;101466.44;5074191;28;20046;-57
2022/06/27 08:37:54;;;;;;;13.93;10.18;;;;;;;18.96;72.57;101454.25;5091073;28;20051;-56
2022/06/27 08:40:22;;;;;;;12.35;9.45;;;;;;;19.05;74.50;101461.50;5092167;28;20105;-57
2022/06/27 08:42:48;;;;;;;12.77;9.18;;;;;;;19.08;74.28;101460.38;5073951;28;20511;-56
2022/06/27 08:45:19;;;;;;;15.45;10.63;;;;;;;19.04;73.89;101471.44;5073669;28;20028;-57
2022/06/27 08:47:46;;;;;;;17.48;10.13;;;;;;;19.06;71.47;101465.94;5092058;28;20102;-57
2022/06/27 08:50:14;;;;;;;11.18;9.98;;;;;;;19.06;74.74;101468.63;5073455;28;20085;-56
2022/06/27 08:52:45;;;;;;;12.93;10.52;;;;;;;19.06;73.31;101463.22;5091523;28;20068;-56
2022/06/27 08:55:11;;;;;;;12.35;10.65;;;;;;;19.12;74.12;101464.50;5091949;28;20178;-57
2022/06/27 08:57:41;;;;;;;14.93;11.82;;;;;;;19.07;71.09;101473.03;5091784;28;20452;-56
2022/06/27 09:00:11;;;;;;;13.63;11.93;;;;;;;19.06;72.44;101469.47;5073281;28;20024;-57
2022/06/27 09:02:42;;;;;;;14.90;11.48;;;;;;;19.17;72.65;101489.22;5091613;28;20509;-56
2022/06/27 09:05:15;;;;;;;13.32;11.23;;;;;;;19.24;72.25;101499.34;5091870;28;20024;-57
2022/06/27 09:07:56;;;;;;;13.80;11.45;;;;;;;19.36;71.48;101497.38;5073157;28;20106;-57
2022/06/27 09:10:30;;;;;;;13.35;11.95;;;;;;;19.37;69.95;101495.53;5091853;28;20027;-57
2022/06/27 09:13:08;;;;;;;15.82;11.55;;;;;;;19.50;70.07;101497.00;5091454;28;20114;-56
2022/06/27 09:15:45;;;;;;;13.82;12.00;;;;;;;19.55;69.54;101491.16;5073258;28;20111;-56
2022/06/27 09:18:13;;;;;;;14.80;12.02;;;;;;;19.63;70.48;101472.44;5091796;28;20030;-56
2022/06/27 09:21:00;;;;;;;15.18;10.98;;;;;;;19.74;69.71;101466.94;5091490;28;20024;-56
2022/06/27 09:23:40;;;;;;;18.40;10.95;;;;;;;19.77;69.69;101473.06;5091384;28;20494;-57
2022/06/27 09:26:15;;;;;;;15.68;11.73;;;;;;;19.79;67.98;101484.53;5091422;28;20069;-57
2022/06/27 09:28:43;;;;;;;13.60;10.90;;;;;;;19.80;68.05;101488.97;5091105;28;20026;-56
2022/06/27 09:31:15;;;;;;;13.20;10.10;;;;;;;19.81;67.83;101486.13;5091588;28;20043;-57
2022/06/27 09:33:44;;;;;;;14.50;9.82;;;;;;;19.95;67.70;101485.69;5090942;28;20048;-57
2022/06/27 09:36:15;;;;;;;12.13;9.40;;;;;;;19.98;67.91;101476.47;5090580;28;20020;-57
2022/06/27 09:38:42;;;;;;;13.45;10.30;;;;;;;20.09;70.17;101473.63;5091084;28;20382;-56
2022/06/27 09:41:12;;;;;;;12.50;9.18;;;;;;;20.22;68.51;101467.91;5091047;28;20024;-56
2022/06/27 09:43:46;;;;;;;11.57;10.30;;;;;;;20.33;67.56;101473.16;5073255;28;20384;-56
2022/06/27 09:46:15;;;;;;;12.35;9.95;;;;;;;20.39;67.14;101469.88;5091045;28;20131;-57
2022/06/27 09:48:44;;;;;;;12.40;9.93;;;;;;;20.48;67.03;101483.50;5072869;28;20492;-57
2022/06/27 09:51:15;;;;;;;11.23;8.75;;;;;;;20.44;65.72;101474.81;5091043;28;20103;-58
2022/06/27 09:53:50;;;;;;;13.25;8.60;;;;;;;20.47;65.77;101479.97;5072920;28;20032;-57
2022/06/27 09:56:20;;;;;;;11.45;8.73;;;;;;;20.50;66.19;101476.09;5091093;28;20116;-57
2022/06/27 09:58:45;;;;;;;13.27;7.93;;;;;;;20.46;63.94;101478.25;5098249;28;20235;-57
2022/06/27 10:01:11;;;;;;;13.20;6.82;;;;;;;20.40;66.88;101468.00;5100960;28;20115;-57
2022/06/27 10:03:37;;;;;;;9.05;6.82;;;;;;;20.36;66.77;101461.22;5073101;28;20036;-57
2022/06/27 10:06:05;;;;;;;10.18;7.70;;;;;;;20.39;64.28;101463.63;5090445;28;20036;-57
2022/06/27 10:08:33;;;;;;;9.25;7.18;;;;;;;20.54;64.99;101467.59;5081903;28;20016;-56
2022/06/27 10:11:06;;;;;;;7.95;6.50;;;;;;;20.61;65.14;101457.88;5089218;28;20059;-57
2022/06/27 10:13:32;;;;;;;9.55;7.13;;;;;;;20.78;63.37;101458.13;5088739;28;20360;-57
2022/06/27 10:16:04;;;;;;;12.68;7.75;;;;;;;20.85;62.52;101456.50;5090887;28;20471;-58
2022/06/27 10:18:53;;;;;;;12.43;7.72;;;;;;;21.05;63.50;101457.28;5090826;28;20034;-56
2022/06/27 10:21:25;;;;;;;7.85;6.03;;;;;;;21.06;61.71;101451.72;5090141;28;20016;-56
2022/06/27 10:24:19;;;;;;;12.23;5.40;;;;;;;21.16;61.48;101456.25;5073156;28;20012;-56
2022/06/27 10:26:46;;;;;;;8.43;5.10;;;;;;;21.13;60.45;101456.53;5094404;28;20031;-56
2022/06/27 10:29:29;;;;;;;11.43;4.63;;;;;;;21.15;59.57;101454.50;5094877;28;20158;-57
2022/06/27 10:31:58;;;;;;;11.10;7.10;;;;;;;21.00;59.49;101457.75;5094510;28;20509;-57
2022/06/27 10:34:48;;;;;;;12.35;6.68;;;;;;;21.04;61.49;101461.84;5094469;28;20597;-57
2022/06/27 10:37:19;;;;;;;10.15;7.05;;;;;;;20.87;61.22;101459.94;5094130;28;20016;-57
2022/06/27 10:39:45;;;;;;;10.75;7.07;;;;;;;20.77;61.29;101461.84;5076555;28;20066;-56
2022/06/27 10:42:49;;;;;;;11.93;6.68;;;;;;;20.82;62.49;101464.91;5094605;28;20059;-57
2022/06/27 10:45:21;;;;;;;7.88;6.05;;;;;;;20.64;62.44;101468.41;5076018;28;20042;-56
2022/06/27 10:47:50;;;;;;;10.32;5.10;;;;;;;20.61;62.82;101467.84;5094191;28;20110;-56
2022/06/27 10:50:18;;;;;;;8.15;5.68;;;;;;;20.57;62.47;101461.03;5094636;28;20032;-56
2022/06/27 10:52:44;;;;;;;9.55;5.40;;;;;;;20.62;62.56;101467.72;5075918;28;20062;-57
2022/06/27 10:55:29;;;;;;;11.13;5.68;;;;;;;20.68;62.96;101465.41;5075315;28;20032;-56
2022/06/27 10:57:56;;;;;;;9.80;4.63;;;;;;;20.63;60.56;101463.16;5094474;28;20121;-57
2022/06/27 11:00:38;;;;;;;8.32;4.40;;;;;;;20.71;62.40;101467.84;5094653;28;20016;-57
2022/06/27 11:03:04;;;;;;;8.25;3.83;;;;;;;20.72;61.39;101474.94;5094195;28;20027;-57
2022/06/27 11:05:50;;;;;;;8.68;3.63;;;;;;;20.77;59.70;101472.66;5093673;28;20020;-57
2022/06/27 11:08:16;;;;;;;6.53;3.10;;;;;;;20.71;58.26;101457.88;5094128;28;20031;-56
2022/06/27 11:10:44;;;;;;;8.65;3.50;;;;;;;20.82;59.35;101467.63;5093863;28;20115;-57
2022/06/27 11:13:10;;;;;;;8.00;3.20;;;;;;;20.88;59.45;101477.84;5094172;28;20498;-56
2022/06/27 11:15:36;;;;;;;6.78;3.80;;;;;;;20.79;57.96;101474.19;5075305;28;20063;-56
2022/06/27 11:18:08;;;;;;;8.48;4.00;;;;;;;20.85;58.78;101468.22;5075643;28;20031;-57
2022/06/27 11:20:34;;;;;;;6.10;3.50;;;;;;;20.88;60.65;101472.44;5075695;28;20024;-57
2022/06/27 11:23:01;;;;;;;7.25;4.70;;;;;;;20.81;59.60;101483.00;5075318;28;20475;-57